sensor_id;sensor_type;location;lat;lon;timestamp;pressure;altitude;pressure_sealevel;temperature;humidity
15294;BME280;7748;52.474;13.454;2023-04-08T00:00:23;101630.78;;;5.68;100.00
15294;BME280;7748;52.474;13.454;2023-04-08T00:02:51;101632.91;;;5.74;100.00
15294;BME280;7748;52.474;13.454;2023-04-08T00:05:20;101638.94;;;5.75;100.00
15294;BME280;7748;52.474;13.454;2023-04-08T00:07:50;101635.16;;;5.69;100.00
15294;BME280;7748;52.474;13.454;2023-04-08T00:10:18;101626.25;;;5.64;100.00
15294;BME280;7748;52.474;13.454;2023-04-08T00:12:46;101634.47;;;5.72;100.00
15294;BME280;7748;52.474;13.454;2023-04-08T00:15:14;101634.97;;;5.66;100.00
15294;BME280;7748;52.474;13.454;2023-04-08T00:17:42;101639.53;;;5.70;100.00
15294;BME280;7748;52.474;13.454;2023-04-08T00:20:10;101630.91;;;5.70;100.00
15294;BME280;7748;52.474;13.454;2023-04-08T00:22:40;101638.75;;;5.72;100.00
15294;BME280;7748;52.474;13.454;2023-04-08T00:25:08;101634.97;;;5.66;100.00
15294;BME280;7748;52.474;13.454;2023-04-08T00:27:35;101634.75;;;5.63;100.00
15294;BME280;7748;52.474;13.454;2023-04-08T00:30:04;101634.34;;;5.57;100.00
15294;BME280;7748;52.474;13.454;2023-04-08T00:32:34;101632.47;;;5.68;100.00
15294;BME280;7748;52.474;13.454;2023-04-08T00:35:03;101638.31;;;5.65;100.00
15294;BME280;7748;52.474;13.454;2023-04-08T00:37:31;101645.75;;;5.61;100.00
15294;BME280;7748;52.474;13.454;2023-04-08T00:40:00;101643.47;;;5.65;100.00
15294;BME280;7748;52.474;13.454;2023-04-08T00:42:29;101631.28;;;5.63;100.00
15294;BME280;7748;52.474;13.454;2023-04-08T00:44:57;101634.97;;;5.66;100.00
15294;BME280;7748;52.474;13.454;2023-04-08T00:47:24;101632.16;;;5.63;100.00
15294;BME280;7748;52.474;13.454;2023-04-08T00:49:52;101643.97;;;5.60;100.00
15294;BME280;7748;52.474;13.454;2023-04-08T00:52:20;101630.78;;;5.68;100.00
15294;BME280;7748;52.474;13.454;2023-04-08T00:54:50;101635.16;;;5.69;100.00
15294;BME280;7748;52.474;13.454;2023-04-08T00:57:19;101628.84;;;5.78;100.00
15294;BME280;7748;52.474;13.454;2023-04-08T00:59:47;101629.75;;;5.78;100.00
15294;BME280;7748;52.474;13.454;2023-04-08T01:02:18;101635.59;;;5.76;100.00
15294;BME280;7748;52.474;13.454;2023-04-08T01:04:58;101634.69;;;5.75;100.00
15294;BME280;7748;52.474;13.454;2023-04-08T01:07:28;101644.00;;;5.73;100.00
15294;BME280;7748;52.474;13.454;2023-04-08T01:10:01;101635.38;;;5.73;100.00
15294;BME280;7748;52.474;13.454;2023-04-08T01:12:32;101640.53;;;5.73;100.00
15294;BME280;7748;52.474;13.454;2023-04-08T01:15:04;101642.34;;;5.74;100.00
15294;BME280;7748;52.474;13.454;2023-04-08T01:17:34;101643.41;;;5.77;100.00
15294;BME280;7748;52.474;13.454;2023-04-08T01:20:04;101637.56;;;5.80;100.00
15294;BME280;7748;52.474;13.454;2023-04-08T01:22:50;101651.84;;;5.75;100.00
15294;BME280;7748;52.474;13.454;2023-04-08T01:25:25;101663.72;;;5.73;100.00
15294;BME280;7748;52.474;13.454;2023-04-08T01:27:55;101654.22;;;5.72;100.00
15294;BME280;7748;52.474;13.454;2023-04-08T01:30:25;101656.88;;;5.73;100.00
15294;BME280;7748;52.474;13.454;2023-04-08T01:32:55;101658.50;;;5.71;100.00
15294;BME280;7748;52.474;13.454;2023-04-08T01:35:24;101649.44;;;5.64;100.00
15294;BME280;7748;52.474;13.454;2023-04-08T01:37:53;101646.50;;;5.72;100.00
15294;BME280;7748;52.474;13.454;2023-04-08T01:40:22;101652.41;;;5.70;100.00
15294;BME280;7748;52.474;13.454;2023-04-08T01:42:52;101655.59;;;5.66;100.00
15294;BME280;7748;52.474;13.454;2023-04-08T01:45:22;101652.09;;;5.66;100.00
15294;BME280;7748;52.474;13.454;2023-04-08T01:47:51;101663.72;;;5.73;100.00
15294;BME280;7748;52.474;13.454;2023-04-08T01:50:20;101665.53;;;5.74;100.00
15294;BME280;7748;52.474;13.454;2023-04-08T01:52:49;101663.91;;;5.62;100.00
15294;BME280;7748;52.474;13.454;2023-04-08T01:55:20;101661.97;;;5.72;100.00
15294;BME280;7748;52.474;13.454;2023-04-08T01:57:51;101657.38;;;5.67;100.00
15294;BME280;7748;52.474;13.454;2023-04-08T02:00:27;101651.84;;;5.75;100.00
15294;BME280;7748;52.474;13.454;2023-04-08T02:02:56;101651.53;;;5.70;100.00
15294;BME280;7748;52.474;13.454;2023-04-08T02:05:25;101654.91;;;5.69;100.00
15294;BME280;7748;52.474;13.454;2023-04-08T02:07:53;101661.16;;;5.73;100.00
15294;BME280;7748;52.474;13.454;2023-04-08T02:10:20;101665.84;;;5.78;100.00
15294;BME280;7748;52.474;13.454;2023-04-08T02:12:48;101664.72;;;5.75;100.00
15294;BME280;7748;52.474;13.454;2023-04-08T02:15:16;101670.88;;;5.77;100.00
15294;BME280;7748;52.474;13.454;2023-04-08T02:17:48;101671.91;;;5.79;100.00
15294;BME280;7748;52.474;13.454;2023-04-08T02:20:18;101673.47;;;5.77;100.00
15294;BME280;7748;52.474;13.454;2023-04-08T02:22:52;101673.47;;;5.77;100.00
15294;BME280;7748;52.474;13.454;2023-04-08T02:25:25;101675.94;;;5.75;100.00
15294;BME280;7748;52.474;13.454;2023-04-08T02:27:54;101676.25;;;5.80;100.00
15294;BME280;7748;52.474;13.454;2023-04-08T02:30:24;101672.66;;;5.78;100.00
15294;BME280;7748;52.474;13.454;2023-04-08T02:32:56;101680.31;;;5.76;100.00
15294;BME280;7748;52.474;13.454;2023-04-08T02:35:25;101681.78;;;5.73;100.00
15294;BME280;7748;52.474;13.454;2023-04-08T02:37:54;101682.97;;;5.78;100.00
15294;BME280;7748;52.474;13.454;2023-04-08T02:40:34;101681.56;;;5.69;100.00
15294;BME280;7748;52.474;13.454;2023-04-08T02:43:02;101688.41;;;5.69;100.00
15294;BME280;7748;52.474;13.454;2023-04-08T02:45:31;101689.50;;;5.73;100.00
15294;BME280;7748;52.474;13.454;2023-04-08T02:48:01;101695.88;;;5.78;100.00
15294;BME280;7748;52.474;13.454;2023-04-08T02:50:29;101695.22;;;5.68;100.00
15294;BME280;7748;52.474;13.454;2023-04-08T02:52:56;101692.31;;;5.76;100.00
15294;BME280;7748;52.474;13.454;2023-04-08T02:55:24;101694.59;;;5.71;100.00
15294;BME280;7748;52.474;13.454;2023-04-08T02:57:52;101698.63;;;5.67;100.00
15294;BME280;7748;52.474;13.454;2023-04-08T03:00:20;101695.34;;;5.70;100.00
15294;BME280;7748;52.474;13.454;2023-04-08T03:02:47;101701.06;;;5.66;100.00
15294;BME280;7748;52.474;13.454;2023-04-08T03:05:17;101689.69;;;5.62;100.00
15294;BME280;7748;52.474;13.454;2023-04-08T03:07:45;101698.13;;;5.73;100.00
15294;BME280;7748;52.474;13.454;2023-04-08T03:10:12;101695.66;;;5.75;100.00
15294;BME280;7748;52.474;13.454;2023-04-08T03:12:40;101698.25;;;5.75;100.00
15294;BME280;7748;52.474;13.454;2023-04-08T03:15:09;101700.13;;;5.77;100.00
15294;BME280;7748;52.474;13.454;2023-04-08T03:17:36;101693.66;;;5.70;100.00
15294;BME280;7748;52.474;13.454;2023-04-08T03:20:05;101705.78;;;5.72;100.00
15294;BME280;7748;52.474;13.454;2023-04-08T03:22:35;101707.34;;;5.69;100.00
15294;BME280;7748;52.474;13.454;2023-04-08T03:25:04;101716.28;;;5.75;100.00
15294;BME280;7748;52.474;13.454;2023-04-08T03:27:31;101716.41;;;5.76;100.00
15294;BME280;7748;52.474;13.454;2023-04-08T03:29:59;101721.66;;;5.78;100.00
15294;BME280;7748;52.474;13.454;2023-04-08T03:32:27;101719.50;;;5.84;100.00
15294;BME280;7748;52.474;13.454;2023-04-08T03:34:55;101719.06;;;5.78;100.00
15294;BME280;7748;52.474;13.454;2023-04-08T03:37:23;101723.13;;;5.74;100.00
15294;BME280;7748;52.474;13.454;2023-04-08T03:39:52;101720.31;;;5.83;100.00
15294;BME280;7748;52.474;13.454;2023-04-08T03:42:20;101726.16;;;5.80;100.00
15294;BME280;7748;52.474;13.454;2023-04-08T03:44:48;101724.22;;;5.78;100.00
15294;BME280;7748;52.474;13.454;2023-04-08T03:47:16;101724.19;;;5.64;100.00
15294;BME280;7748;52.474;13.454;2023-04-08T03:49:44;101728.19;;;5.73;100.00
15294;BME280;7748;52.474;13.454;2023-04-08T03:52:13;101730.31;;;5.78;100.00
15294;BME280;7748;52.474;13.454;2023-04-08T03:54:41;101736.72;;;5.72;100.00
15294;BME280;7748;52.474;13.454;2023-04-08T03:57:10;101733.56;;;5.76;100.00
15294;BME280;7748;52.474;13.454;2023-04-08T03:59:38;101742.06;;;5.75;100.00
15294;BME280;7748;52.474;13.454;2023-04-08T04:02:06;101738.50;;;5.73;100.00
15294;BME280;7748;52.474;13.454;2023-04-08T04:04:34;101753.03;;;5.84;100.00
15294;BME280;7748;52.474;13.454;2023-04-08T04:07:02;101745.19;;;5.82;100.00
15294;BME280;7748;52.474;13.454;2023-04-08T04:09:30;101749.00;;;5.87;100.00
15294;BME280;7748;52.474;13.454;2023-04-08T04:11:58;101749.25;;;5.79;100.00
15294;BME280;7748;52.474;13.454;2023-04-08T04:14:27;101749.44;;;5.82;100.00
15294;BME280;7748;52.474;13.454;2023-04-08T04:16:55;101741.84;;;5.83;100.00
15294;BME280;7748;52.474;13.454;2023-04-08T04:19:22;101748.06;;;5.87;100.00
15294;BME280;7748;52.474;13.454;2023-04-08T04:21:50;101745.09;;;5.81;100.00
15294;BME280;7748;52.474;13.454;2023-04-08T04:24:18;101755.97;;;5.77;100.00
15294;BME280;7748;52.474;13.454;2023-04-08T04:26:46;101761.78;;;5.86;100.00
15294;BME280;7748;52.474;13.454;2023-04-08T04:29:13;101765.34;;;5.88;100.00
15294;BME280;7748;52.474;13.454;2023-04-08T04:31:42;101769.50;;;5.86;100.00
15294;BME280;7748;52.474;13.454;2023-04-08T04:34:11;101765.56;;;5.91;100.00
15294;BME280;7748;52.474;13.454;2023-04-08T04:36:39;101774.09;;;5.90;100.00
15294;BME280;7748;52.474;13.454;2023-04-08T04:39:07;101768.06;;;5.78;100.00
15294;BME280;7748;52.474;13.454;2023-04-08T04:41:35;101772.97;;;5.86;100.00
15294;BME280;7748;52.474;13.454;2023-04-08T04:44:06;101776.44;;;5.87;100.00
15294;BME280;7748;52.474;13.454;2023-04-08T04:46:33;101779.25;;;5.90;100.00
15294;BME280;7748;52.474;13.454;2023-04-08T04:49:03;101783.97;;;5.84;100.00
15294;BME280;7748;52.474;13.454;2023-04-08T04:51:30;101788.00;;;5.92;100.00
15294;BME280;7748;52.474;13.454;2023-04-08T04:53:58;101781.31;;;5.94;100.00
15294;BME280;7748;52.474;13.454;2023-04-08T04:56:26;101785.66;;;5.95;100.00
15294;BME280;7748;52.474;13.454;2023-04-08T04:58:54;101788.44;;;5.98;100.00
15294;BME280;7748;52.474;13.454;2023-04-08T05:01:22;101790.00;;;5.96;100.00
15294;BME280;7748;52.474;13.454;2023-04-08T05:03:49;101788.44;;;5.98;100.00
15294;BME280;7748;52.474;13.454;2023-04-08T05:06:19;101800.09;;;5.93;100.00
15294;BME280;7748;52.474;13.454;2023-04-08T05:08:46;101794.28;;;5.96;100.00
15294;BME280;7748;52.474;13.454;2023-04-08T05:11:15;101790.25;;;5.99;100.00
15294;BME280;7748;52.474;13.454;2023-04-08T05:13:44;101796.78;;;5.94;100.00
15294;BME280;7748;52.474;13.454;2023-04-08T05:16:11;101809.41;;;5.91;100.00
15294;BME280;7748;52.474;13.454;2023-04-08T05:18:39;101808.41;;;5.89;100.00
15294;BME280;7748;52.474;13.454;2023-04-08T05:21:07;101802.81;;;5.95;100.00
15294;BME280;7748;52.474;13.454;2023-04-08T05:23:36;101803.91;;;5.98;100.00
15294;BME280;7748;52.474;13.454;2023-04-08T05:26:06;101798.75;;;5.98;100.00
15294;BME280;7748;52.474;13.454;2023-04-08T05:28:34;101798.41;;;6.05;100.00
15294;BME280;7748;52.474;13.454;2023-04-08T05:31:02;101803.91;;;5.98;100.00
15294;BME280;7748;52.474;13.454;2023-04-08T05:33:30;101802.88;;;6.08;100.00
15294;BME280;7748;52.474;13.454;2023-04-08T05:35:58;101807.00;;;6.18;100.00
15294;BME280;7748;52.474;13.454;2023-04-08T05:38:26;101822.28;;;6.03;100.00
15294;BME280;7748;52.474;13.454;2023-04-08T05:40:55;101828.91;;;6.11;100.00
15294;BME280;7748;52.474;13.454;2023-04-08T05:43:23;101829.91;;;6.13;100.00
15294;BME280;7748;52.474;13.454;2023-04-08T05:45:50;101842.47;;;6.08;100.00
15294;BME280;7748;52.474;13.454;2023-04-08T05:48:18;101843.31;;;6.21;100.00
15294;BME280;7748;52.474;13.454;2023-04-08T05:50:49;101835.22;;;6.28;100.00
15294;BME280;7748;52.474;13.454;2023-04-08T05:53:17;101841.28;;;6.28;100.00
15294;BME280;7748;52.474;13.454;2023-04-08T05:55:44;101848.44;;;6.32;100.00
15294;BME280;7748;52.474;13.454;2023-04-08T05:58:14;101843.78;;;6.40;100.00
15294;BME280;7748;52.474;13.454;2023-04-08T06:00:42;101845.34;;;6.25;100.00
15294;BME280;7748;52.474;13.454;2023-04-08T06:03:10;101842.41;;;6.32;100.00
15294;BME280;7748;52.474;13.454;2023-04-08T06:05:38;101838.91;;;6.31;100.00
15294;BME280;7748;52.474;13.454;2023-04-08T06:08:06;101830.00;;;6.40;100.00
15294;BME280;7748;52.474;13.454;2023-04-08T06:10:34;101840.06;;;6.48;100.00
15294;BME280;7748;52.474;13.454;2023-04-08T06:13:02;101846.19;;;6.62;100.00
15294;BME280;7748;52.474;13.454;2023-04-08T06:15:33;101851.34;;;6.62;100.00
15294;BME280;7748;52.474;13.454;2023-04-08T06:18:01;101855.38;;;6.59;100.00
15294;BME280;7748;52.474;13.454;2023-04-08T06:20:29;101850.91;;;6.56;100.00
15294;BME280;7748;52.474;13.454;2023-04-08T06:22:57;101859.19;;;6.64;100.00
15294;BME280;7748;52.474;13.454;2023-04-08T06:25:24;101856.06;;;6.56;100.00
15294;BME280;7748;52.474;13.454;2023-04-08T06:27:52;101853.44;;;6.68;100.00
15294;BME280;7748;52.474;13.454;2023-04-08T06:30:20;101858.19;;;6.62;100.00
15294;BME280;7748;52.474;13.454;2023-04-08T06:32:49;101868.22;;;6.70;100.00
15294;BME280;7748;52.474;13.454;2023-04-08T06:35:17;101866.78;;;6.74;100.00
15294;BME280;7748;52.474;13.454;2023-04-08T06:37:45;101868.41;;;6.85;100.00
15294;BME280;7748;52.474;13.454;2023-04-08T06:40:13;101871.38;;;6.91;100.00
15294;BME280;7748;52.474;13.454;2023-04-08T06:42:41;101878.53;;;6.95;100.00
15294;BME280;7748;52.474;13.454;2023-04-08T06:45:10;101879.38;;;7.08;100.00
15294;BME280;7748;52.474;13.454;2023-04-08T06:47:39;101886.13;;;7.06;100.00
15294;BME280;7748;52.474;13.454;2023-04-08T06:50:09;101894.28;;;7.12;100.00
15294;BME280;7748;52.474;13.454;2023-04-08T06:52:37;101885.41;;;6.95;100.00
15294;BME280;7748;52.474;13.454;2023-04-08T06:55:05;101893.69;;;7.16;100.00
15294;BME280;7748;52.474;13.454;2023-04-08T06:57:33;101898.47;;;7.23;100.00
15294;BME280;7748;52.474;13.454;2023-04-08T07:00:01;101900.66;;;7.30;100.00
15294;BME280;7748;52.474;13.454;2023-04-08T07:02:29;101899.50;;;7.38;100.00
15294;BME280;7748;52.474;13.454;2023-04-08T07:04:57;101901.69;;;7.46;100.00
15294;BME280;7748;52.474;13.454;2023-04-08T07:07:26;101908.66;;;7.60;100.00
15294;BME280;7748;52.474;13.454;2023-04-08T07:09:54;101910.44;;;7.48;100.00
15294;BME280;7748;52.474;13.454;2023-04-08T07:12:22;101917.38;;;7.49;100.00
15294;BME280;7748;52.474;13.454;2023-04-08T07:14:49;101917.81;;;7.55;100.00
15294;BME280;7748;52.474;13.454;2023-04-08T07:17:18;101903.19;;;7.55;100.00
15294;BME280;7748;52.474;13.454;2023-04-08T07:19:55;101922.00;;;7.66;100.00
15294;BME280;7748;52.474;13.454;2023-04-08T07:22:23;101920.06;;;7.77;100.00
15294;BME280;7748;52.474;13.454;2023-04-08T07:24:53;101931.94;;;7.87;100.00
15294;BME280;7748;52.474;13.454;2023-04-08T07:27:20;101931.72;;;7.84;100.00
15294;BME280;7748;52.474;13.454;2023-04-08T07:29:51;101928.84;;;7.92;100.00
15294;BME280;7748;52.474;13.454;2023-04-08T07:32:20;101941.66;;;7.91;100.00
15294;BME280;7748;52.474;13.454;2023-04-08T07:34:49;101946.88;;;7.77;100.00
15294;BME280;7748;52.474;13.454;2023-04-08T07:37:16;101945.66;;;7.72;100.00
15294;BME280;7748;52.474;13.454;2023-04-08T07:39:44;101943.06;;;7.72;100.00
15294;BME280;7748;52.474;13.454;2023-04-08T07:42:13;101950.03;;;7.73;100.00
15294;BME280;7748;52.474;13.454;2023-04-08T07:44:42;101958.06;;;7.51;100.00
15294;BME280;7748;52.474;13.454;2023-04-08T07:47:09;101958.19;;;7.66;100.00
15294;BME280;7748;52.474;13.454;2023-04-08T07:49:41;101959.19;;;7.82;100.00
15294;BME280;7748;52.474;13.454;2023-04-08T07:52:08;101956.28;;;7.77;100.00
15294;BME280;7748;52.474;13.454;2023-04-08T07:54:36;101952.41;;;7.97;100.00
15294;BME280;7748;52.474;13.454;2023-04-08T07:57:07;101958.78;;;8.02;100.00
15294;BME280;7748;52.474;13.454;2023-04-08T07:59:36;101962.97;;;8.00;100.00
15294;BME280;7748;52.474;13.454;2023-04-08T08:02:04;101964.94;;;8.17;100.00
15294;BME280;7748;52.474;13.454;2023-04-08T08:04:32;101960.91;;;8.49;100.00
15294;BME280;7748;52.474;13.454;2023-04-08T08:07:00;101968.78;;;8.51;100.00
15294;BME280;7748;52.474;13.454;2023-04-08T08:09:28;101971.97;;;8.47;100.00
15294;BME280;7748;52.474;13.454;2023-04-08T08:11:57;101972.38;;;8.26;100.00
15294;BME280;7748;52.474;13.454;2023-04-08T08:14:25;101974.38;;;8.43;100.00
15294;BME280;7748;52.474;13.454;2023-04-08T08:16:54;101976.97;;;8.43;100.00
15294;BME280;7748;52.474;13.454;2023-04-08T08:19:22;101975.66;;;8.23;100.00
15294;BME280;7748;52.474;13.454;2023-04-08T08:21:50;101987.44;;;8.18;100.00
15294;BME280;7748;52.474;13.454;2023-04-08T08:24:18;101981.56;;;8.21;100.00
15294;BME280;7748;52.474;13.454;2023-04-08T08:26:48;101991.19;;;8.23;100.00
15294;BME280;7748;52.474;13.454;2023-04-08T08:29:16;101981.25;;;8.30;100.00
15294;BME280;7748;52.474;13.454;2023-04-08T08:31:44;101992.69;;;8.47;100.00
15294;BME280;7748;52.474;13.454;2023-04-08T08:34:15;101986.22;;;8.53;100.00
15294;BME280;7748;52.474;13.454;2023-04-08T08:36:43;101992.16;;;8.66;100.00
15294;BME280;7748;52.474;13.454;2023-04-08T08:39:10;102001.44;;;8.35;100.00
15294;BME280;7748;52.474;13.454;2023-04-08T08:41:38;102007.94;;;8.55;100.00
15294;BME280;7748;52.474;13.454;2023-04-08T08:44:07;102003.75;;;8.44;100.00
15294;BME280;7748;52.474;13.454;2023-04-08T08:46:36;101998.16;;;8.51;100.00
15294;BME280;7748;52.474;13.454;2023-04-08T08:49:09;101999.41;;;8.99;100.00
15294;BME280;7748;52.474;13.454;2023-04-08T08:51:40;102002.28;;;9.04;100.00
15294;BME280;7748;52.474;13.454;2023-04-08T08:54:08;102004.66;;;9.29;100.00
15294;BME280;7748;52.474;13.454;2023-04-08T08:56:36;101999.44;;;9.14;100.00
15294;BME280;7748;52.474;13.454;2023-04-08T08:59:04;102005.28;;;9.25;100.00
15294;BME280;7748;52.474;13.454;2023-04-08T09:01:35;102017.47;;;9.26;100.00
15294;BME280;7748;52.474;13.454;2023-04-08T09:04:09;102009.69;;;9.26;100.00
15294;BME280;7748;52.474;13.454;2023-04-08T09:06:38;102014.50;;;9.20;100.00
15294;BME280;7748;52.474;13.454;2023-04-08T09:09:07;102020.53;;;9.05;100.00
15294;BME280;7748;52.474;13.454;2023-04-08T09:11:39;102021.94;;;9.00;100.00
15294;BME280;7748;52.474;13.454;2023-04-08T09:14:19;102028.88;;;8.87;100.00
15294;BME280;7748;52.474;13.454;2023-04-08T09:16:48;102029.38;;;8.81;100.00
15294;BME280;7748;52.474;13.454;2023-04-08T09:19:17;102035.59;;;8.98;100.00
15294;BME280;7748;52.474;13.454;2023-04-08T09:22:03;102035.88;;;9.02;100.00
15294;BME280;7748;52.474;13.454;2023-04-08T09:24:34;102038.59;;;9.19;100.00
15294;BME280;7748;52.474;13.454;2023-04-08T09:27:03;102040.84;;;9.13;100.00
15294;BME280;7748;52.474;13.454;2023-04-08T09:29:31;102043.47;;;8.99;100.00
15294;BME280;7748;52.474;13.454;2023-04-08T09:32:04;102046.47;;;9.05;100.00
15294;BME280;7748;52.474;13.454;2023-04-08T09:34:32;102047.50;;;8.94;100.00
15294;BME280;7748;52.474;13.454;2023-04-08T09:37:00;102047.63;;;8.82;100.00
15294;BME280;7748;52.474;13.454;2023-04-08T09:39:28;102045.91;;;8.96;100.00
15294;BME280;7748;52.474;13.454;2023-04-08T09:41:59;102051.81;;;9.09;100.00
15294;BME280;7748;52.474;13.454;2023-04-08T09:44:33;102059.56;;;9.22;100.00
15294;BME280;7748;52.474;13.454;2023-04-08T09:47:07;102053.34;;;9.33;100.00
15294;BME280;7748;52.474;13.454;2023-04-08T09:49:38;102047.09;;;9.59;100.00
15294;BME280;7748;52.474;13.454;2023-04-08T09:52:10;102047.63;;;9.83;100.00
15294;BME280;7748;52.474;13.454;2023-04-08T09:54:43;102047.78;;;10.16;100.00
15294;BME280;7748;52.474;13.454;2023-04-08T09:57:20;102049.94;;;10.38;100.00
15294;BME280;7748;52.474;13.454;2023-04-08T09:59:52;102035.78;;;10.64;100.00
15294;BME280;7748;52.474;13.454;2023-04-08T10:02:33;102033.06;;;10.46;100.00
15294;BME280;7748;52.474;13.454;2023-04-08T10:05:05;102026.03;;;10.60;100.00
15294;BME280;7748;52.474;13.454;2023-04-08T10:07:35;102037.88;;;10.55;100.00
15294;BME280;7748;52.474;13.454;2023-04-08T10:10:03;102042.91;;;10.52;100.00
15294;BME280;7748;52.474;13.454;2023-04-08T10:12:33;102045.38;;;10.19;100.00
15294;BME280;7748;52.474;13.454;2023-04-08T10:15:22;102041.31;;;10.54;100.00
15294;BME280;7748;52.474;13.454;2023-04-08T10:17:50;102041.13;;;10.51;100.00
15294;BME280;7748;52.474;13.454;2023-04-08T10:20:40;102034.81;;;10.62;100.00
15294;BME280;7748;52.474;13.454;2023-04-08T10:23:09;102037.44;;;10.79;100.00
15294;BME280;7748;52.474;13.454;2023-04-08T10:25:39;102041.94;;;10.50;100.00
15294;BME280;7748;52.474;13.454;2023-04-08T10:28:25;102040.94;;;10.48;100.00
15294;BME280;7748;52.474;13.454;2023-04-08T10:30:54;102041.72;;;10.30;100.00
15294;BME280;7748;52.474;13.454;2023-04-08T10:33:30;102040.78;;;10.45;100.00
15294;BME280;7748;52.474;13.454;2023-04-08T10:36:08;102035.53;;;10.91;100.00
15294;BME280;7748;52.474;13.454;2023-04-08T10:38:37;102033.44;;;10.69;100.00
15294;BME280;7748;52.474;13.454;2023-04-08T10:41:05;102028.66;;;10.93;100.00
15294;BME280;7748;52.474;13.454;2023-04-08T10:43:35;102029.97;;;11.01;100.00
15294;BME280;7748;52.474;13.454;2023-04-08T10:46:03;102033.22;;;10.81;100.00
15294;BME280;7748;52.474;13.454;2023-04-08T10:48:31;102028.50;;;10.73;100.00
15294;BME280;7748;52.474;13.454;2023-04-08T10:51:00;102032.91;;;10.91;100.00
15294;BME280;7748;52.474;13.454;2023-04-08T10:53:30;102036.69;;;10.81;100.00
15294;BME280;7748;52.474;13.454;2023-04-08T10:56:05;102034.78;;;10.77;100.00
15294;BME280;7748;52.474;13.454;2023-04-08T10:58:35;102031.25;;;10.77;100.00
15294;BME280;7748;52.474;13.454;2023-04-08T11:01:04;102036.09;;;10.54;100.00
15294;BME280;7748;52.474;13.454;2023-04-08T11:03:33;102033.09;;;10.63;100.00
15294;BME280;7748;52.474;13.454;2023-04-08T11:06:03;102032.75;;;11.04;100.00
15294;BME280;7748;52.474;13.454;2023-04-08T11:08:35;102033.72;;;11.06;100.00
15294;BME280;7748;52.474;13.454;2023-04-08T11:11:03;102029.63;;;11.28;100.00
15294;BME280;7748;52.474;13.454;2023-04-08T11:13:36;102032.72;;;11.37;100.00
15294;BME280;7748;52.474;13.454;2023-04-08T11:16:11;102029.75;;;11.13;100.00
15294;BME280;7748;52.474;13.454;2023-04-08T11:18:44;102019.41;;;11.31;100.00
15294;BME280;7748;52.474;13.454;2023-04-08T11:21:14;102030.31;;;11.07;100.00
15294;BME280;7748;52.474;13.454;2023-04-08T11:23:42;102033.72;;;10.90;100.00
15294;BME280;7748;52.474;13.454;2023-04-08T11:26:10;102034.19;;;10.83;100.00
15294;BME280;7748;52.474;13.454;2023-04-08T11:28:39;102036.63;;;10.63;100.00
15294;BME280;7748;52.474;13.454;2023-04-08T11:31:07;102036.47;;;10.93;100.00
15294;BME280;7748;52.474;13.454;2023-04-08T11:33:36;102043.72;;;11.15;100.00
15294;BME280;7748;52.474;13.454;2023-04-08T11:36:04;102043.38;;;11.25;100.00
15294;BME280;7748;52.474;13.454;2023-04-08T11:38:37;102043.81;;;11.16;100.00
15294;BME280;7748;52.474;13.454;2023-04-08T11:41:05;102043.72;;;10.99;100.00
15294;BME280;7748;52.474;13.454;2023-04-08T11:43:33;102036.81;;;10.99;100.00
15294;BME280;7748;52.474;13.454;2023-04-08T11:46:09;102039.25;;;11.12;100.00
15294;BME280;7748;52.474;13.454;2023-04-08T11:48:38;102039.16;;;11.27;100.00
15294;BME280;7748;52.474;13.454;2023-04-08T11:51:07;102038.53;;;11.66;100.00
15294;BME280;7748;52.474;13.454;2023-04-08T11:53:35;102025.25;;;12.12;100.00
15294;BME280;7748;52.474;13.454;2023-04-08T11:56:16;102031.47;;;12.33;100.00
15294;BME280;7748;52.474;13.454;2023-04-08T11:58:44;102022.22;;;11.86;100.00
15294;BME280;7748;52.474;13.454;2023-04-08T12:01:13;102015.84;;;11.97;100.00
15294;BME280;7748;52.474;13.454;2023-04-08T12:03:53;102019.13;;;11.93;100.00
15294;BME280;7748;52.474;13.454;2023-04-08T12:06:22;102012.72;;;12.05;100.00
15294;BME280;7748;52.474;13.454;2023-04-08T12:08:53;102012.25;;;12.31;100.00
15294;BME280;7748;52.474;13.454;2023-04-08T12:11:22;102009.44;;;12.45;100.00
15294;BME280;7748;52.474;13.454;2023-04-08T12:13:53;102011.63;;;12.55;100.00
15294;BME280;7748;52.474;13.454;2023-04-08T12:16:22;102011.16;;;12.63;100.00
15294;BME280;7748;52.474;13.454;2023-04-08T12:18:50;102005.84;;;12.07;100.00
15294;BME280;7748;52.474;13.454;2023-04-08T12:21:18;102002.81;;;12.33;100.00
15294;BME280;7748;52.474;13.454;2023-04-08T12:23:46;102007.97;;;12.14;100.00
15294;BME280;7748;52.474;13.454;2023-04-08T12:26:14;102009.44;;;11.91;100.00
15294;BME280;7748;52.474;13.454;2023-04-08T12:28:42;102017.88;;;11.87;100.00
15294;BME280;7748;52.474;13.454;2023-04-08T12:31:10;102003.47;;;12.29;100.00
15294;BME280;7748;52.474;13.454;2023-04-08T12:33:39;102007.72;;;12.27;100.00
15294;BME280;7748;52.474;13.454;2023-04-08T12:36:09;102005.09;;;12.27;100.00
15294;BME280;7748;52.474;13.454;2023-04-08T12:38:39;102008.09;;;12.17;100.00
15294;BME280;7748;52.474;13.454;2023-04-08T12:41:07;102003.69;;;12.16;100.00
15294;BME280;7748;52.474;13.454;2023-04-08T12:43:35;102011.06;;;12.07;100.00
15294;BME280;7748;52.474;13.454;2023-04-08T12:46:04;102009.44;;;12.09;100.00
15294;BME280;7748;52.474;13.454;2023-04-08T12:48:32;101998.75;;;12.03;100.00
15294;BME280;7748;52.474;13.454;2023-04-08T12:51:01;101994.56;;;11.88;100.00
15294;BME280;7748;52.474;13.454;2023-04-08T12:53:30;102003.19;;;11.87;100.00
15294;BME280;7748;52.474;13.454;2023-04-08T12:55:57;102004.19;;;11.73;100.00
15294;BME280;7748;52.474;13.454;2023-04-08T12:58:26;102010.13;;;11.70;100.00